sensor_id;sensor_type;location;lat;lon;timestamp;P1;durP1;ratioP1;P2;durP2;ratioP2
42194;SDS011;27863;49.440;11.102;2024-01-06T00:02:03;6.17;;;5.57;;
42194;SDS011;27863;49.440;11.102;2024-01-06T00:05:04;7.03;;;5.00;;
42194;SDS011;27863;49.440;11.102;2024-01-06T00:08:05;5.50;;;5.00;;
42194;SDS011;27863;49.440;11.102;2024-01-06T00:11:06;7.80;;;5.60;;
42194;SDS011;27863;49.440;11.102;2024-01-06T00:14:06;5.13;;;4.47;;
42194;SDS011;27863;49.440;11.102;2024-01-06T00:17:07;5.53;;;5.00;;
42194;SDS011;27863;49.440;11.102;2024-01-06T00:20:07;6.27;;;5.47;;
42194;SDS011;27863;49.440;11.102;2024-01-06T00:23:08;7.57;;;5.80;;
42194;SDS011;27863;49.440;11.102;2024-01-06T00:26:09;6.10;;;5.43;;
42194;SDS011;27863;49.440;11.102;2024-01-06T00:29:10;7.83;;;6.00;;
42194;SDS011;27863;49.440;11.102;2024-01-06T00:32:11;7.10;;;6.40;;
42194;SDS011;27863;49.440;11.102;2024-01-06T00:35:11;7.30;;;6.60;;
42194;SDS011;27863;49.440;11.102;2024-01-06T00:38:12;8.00;;;6.43;;
42194;SDS011;27863;49.440;11.102;2024-01-06T00:41:13;7.47;;;6.47;;
42194;SDS011;27863;49.440;11.102;2024-01-06T00:44:13;11.37;;;6.60;;
42194;SDS011;27863;49.440;11.102;2024-01-06T00:47:14;6.87;;;6.27;;
42194;SDS011;27863;49.440;11.102;2024-01-06T00:50:14;12.07;;;7.00;;
42194;SDS011;27863;49.440;11.102;2024-01-06T00:53:15;7.03;;;6.23;;
42194;SDS011;27863;49.440;11.102;2024-01-06T00:56:16;7.20;;;6.50;;
42194;SDS011;27863;49.440;11.102;2024-01-06T00:59:16;8.90;;;7.10;;
42194;SDS011;27863;49.440;11.102;2024-01-06T01:02:17;6.73;;;6.13;;
42194;SDS011;27863;49.440;11.102;2024-01-06T01:05:17;8.10;;;6.10;;
42194;SDS011;27863;49.440;11.102;2024-01-06T01:08:18;5.73;;;5.23;;
42194;SDS011;27863;49.440;11.102;2024-01-06T01:11:18;6.30;;;5.70;;
42194;SDS011;27863;49.440;11.102;2024-01-06T01:14:19;6.97;;;6.37;;
42194;SDS011;27863;49.440;11.102;2024-01-06T01:17:19;8.80;;;6.37;;
42194;SDS011;27863;49.440;11.102;2024-01-06T01:20:20;11.97;;;5.37;;
42194;SDS011;27863;49.440;11.102;2024-01-06T01:23:20;6.87;;;4.93;;
42194;SDS011;27863;49.440;11.102;2024-01-06T01:26:21;5.87;;;5.37;;
42194;SDS011;27863;49.440;11.102;2024-01-06T01:29:21;5.43;;;4.93;;
42194;SDS011;27863;49.440;11.102;2024-01-06T01:32:22;6.60;;;5.80;;
42194;SDS011;27863;49.440;11.102;2024-01-06T01:35:22;7.30;;;6.53;;
42194;SDS011;27863;49.440;11.102;2024-01-06T01:38:23;6.83;;;6.17;;
42194;SDS011;27863;49.440;11.102;2024-01-06T01:41:24;6.13;;;5.33;;
42194;SDS011;27863;49.440;11.102;2024-01-06T01:44:25;6.97;;;5.83;;
42194;SDS011;27863;49.440;11.102;2024-01-06T01:47:25;6.57;;;5.83;;
42194;SDS011;27863;49.440;11.102;2024-01-06T01:50:26;5.60;;;5.10;;
42194;SDS011;27863;49.440;11.102;2024-01-06T01:53:27;6.17;;;5.57;;
42194;SDS011;27863;49.440;11.102;2024-01-06T01:56:28;7.93;;;5.37;;
42194;SDS011;27863;49.440;11.102;2024-01-06T01:59:34;7.50;;;5.70;;
42194;SDS011;27863;49.440;11.102;2024-01-06T02:02:34;6.37;;;5.60;;
42194;SDS011;27863;49.440;11.102;2024-01-06T02:05:35;5.47;;;4.97;;
42194;SDS011;27863;49.440;11.102;2024-01-06T02:08:35;8.53;;;4.97;;
42194;SDS011;27863;49.440;11.102;2024-01-06T02:11:36;6.63;;;5.30;;
42194;SDS011;27863;49.440;11.102;2024-01-06T02:14:36;6.83;;;5.10;;
42194;SDS011;27863;49.440;11.102;2024-01-06T02:17:37;6.10;;;5.50;;
42194;SDS011;27863;49.440;11.102;2024-01-06T02:20:40;5.90;;;5.40;;
42194;SDS011;27863;49.440;11.102;2024-01-06T02:23:43;5.40;;;4.77;;
42194;SDS011;27863;49.440;11.102;2024-01-06T02:26:44;6.13;;;4.93;;
42194;SDS011;27863;49.440;11.102;2024-01-06T02:29:44;5.70;;;5.20;;
42194;SDS011;27863;49.440;11.102;2024-01-06T02:32:45;5.40;;;4.90;;
42194;SDS011;27863;49.440;11.102;2024-01-06T02:35:46;6.07;;;5.50;;
42194;SDS011;27863;49.440;11.102;2024-01-06T02:38:46;6.13;;;5.57;;
42194;SDS011;27863;49.440;11.102;2024-01-06T02:41:47;6.70;;;5.97;;
42194;SDS011;27863;49.440;11.102;2024-01-06T02:44:47;7.53;;;6.70;;
42194;SDS011;27863;49.440;11.102;2024-01-06T02:47:48;7.93;;;5.70;;
42194;SDS011;27863;49.440;11.102;2024-01-06T02:50:48;7.33;;;5.70;;
42194;SDS011;27863;49.440;11.102;2024-01-06T02:53:49;7.43;;;6.33;;
42194;SDS011;27863;49.440;11.102;2024-01-06T02:56:49;7.43;;;6.70;;
42194;SDS011;27863;49.440;11.102;2024-01-06T02:59:49;7.33;;;6.57;;
42194;SDS011;27863;49.440;11.102;2024-01-06T03:02:50;10.37;;;6.30;;
42194;SDS011;27863;49.440;11.102;2024-01-06T03:05:51;8.33;;;7.47;;
42194;SDS011;27863;49.440;11.102;2024-01-06T03:08:51;8.27;;;6.87;;
42194;SDS011;27863;49.440;11.102;2024-01-06T03:11:51;7.87;;;7.07;;
42194;SDS011;27863;49.440;11.102;2024-01-06T03:14:52;7.67;;;6.83;;
42194;SDS011;27863;49.440;11.102;2024-01-06T03:17:53;8.70;;;7.20;;
42194;SDS011;27863;49.440;11.102;2024-01-06T03:20:53;9.57;;;8.03;;
42194;SDS011;27863;49.440;11.102;2024-01-06T03:23:54;9.10;;;7.80;;
42194;SDS011;27863;49.440;11.102;2024-01-06T03:26:55;8.83;;;7.97;;
42194;SDS011;27863;49.440;11.102;2024-01-06T03:29:56;8.20;;;6.83;;
42194;SDS011;27863;49.440;11.102;2024-01-06T03:32:56;7.40;;;6.50;;
42194;SDS011;27863;49.440;11.102;2024-01-06T03:35:57;6.60;;;5.90;;
42194;SDS011;27863;49.440;11.102;2024-01-06T03:38:57;8.40;;;6.17;;
42194;SDS011;27863;49.440;11.102;2024-01-06T03:41:57;5.93;;;5.27;;
42194;SDS011;27863;49.440;11.102;2024-01-06T03:44:59;6.47;;;5.83;;
42194;SDS011;27863;49.440;11.102;2024-01-06T03:48:00;5.37;;;4.83;;
42194;SDS011;27863;49.440;11.102;2024-01-06T03:51:00;5.70;;;5.03;;
42194;SDS011;27863;49.440;11.102;2024-01-06T03:54:02;6.23;;;5.73;;
42194;SDS011;27863;49.440;11.102;2024-01-06T03:57:02;5.50;;;4.97;;
42194;SDS011;27863;49.440;11.102;2024-01-06T04:00:03;5.50;;;5.00;;
42194;SDS011;27863;49.440;11.102;2024-01-06T04:03:04;6.73;;;5.40;;
42194;SDS011;27863;49.440;11.102;2024-01-06T04:06:06;6.07;;;5.43;;
42194;SDS011;27863;49.440;11.102;2024-01-06T04:09:07;8.17;;;6.30;;
42194;SDS011;27863;49.440;11.102;2024-01-06T04:12:09;5.47;;;4.97;;
42194;SDS011;27863;49.440;11.102;2024-01-06T04:15:09;6.03;;;5.43;;
42194;SDS011;27863;49.440;11.102;2024-01-06T04:18:10;5.67;;;5.03;;
42194;SDS011;27863;49.440;11.102;2024-01-06T04:21:10;6.37;;;5.77;;
42194;SDS011;27863;49.440;11.102;2024-01-06T04:24:12;10.23;;;5.23;;
42194;SDS011;27863;49.440;11.102;2024-01-06T04:27:12;6.23;;;5.20;;
42194;SDS011;27863;49.440;11.102;2024-01-06T04:30:13;6.40;;;5.20;;
42194;SDS011;27863;49.440;11.102;2024-01-06T04:33:13;6.13;;;5.30;;
42194;SDS011;27863;49.440;11.102;2024-01-06T04:36:14;6.37;;;5.77;;
42194;SDS011;27863;49.440;11.102;2024-01-06T04:39:14;6.57;;;5.97;;
42194;SDS011;27863;49.440;11.102;2024-01-06T04:42:15;7.07;;;5.47;;
42194;SDS011;27863;49.440;11.102;2024-01-06T04:45:15;6.23;;;5.70;;
42194;SDS011;27863;49.440;11.102;2024-01-06T04:48:16;15.63;;;7.00;;
42194;SDS011;27863;49.440;11.102;2024-01-06T04:51:16;7.73;;;5.40;;
42194;SDS011;27863;49.440;11.102;2024-01-06T04:54:17;6.40;;;5.90;;
42194;SDS011;27863;49.440;11.102;2024-01-06T04:57:18;6.30;;;5.40;;
42194;SDS011;27863;49.440;11.102;2024-01-06T05:00:20;5.47;;;4.97;;
42194;SDS011;27863;49.440;11.102;2024-01-06T05:03:21;5.60;;;5.03;;
42194;SDS011;27863;49.440;11.102;2024-01-06T05:06:22;5.47;;;4.97;;
42194;SDS011;27863;49.440;11.102;2024-01-06T05:09:23;6.93;;;5.70;;
42194;SDS011;27863;49.440;11.102;2024-01-06T05:12:23;7.23;;;5.50;;
42194;SDS011;27863;49.440;11.102;2024-01-06T05:15:24;6.07;;;5.57;;
42194;SDS011;27863;49.440;11.102;2024-01-06T05:18:25;5.53;;;5.03;;
42194;SDS011;27863;49.440;11.102;2024-01-06T05:21:25;6.37;;;5.77;;
42194;SDS011;27863;49.440;11.102;2024-01-06T05:24:26;7.03;;;6.43;;
42194;SDS011;27863;49.440;11.102;2024-01-06T05:27:26;5.40;;;4.87;;
42194;SDS011;27863;49.440;11.102;2024-01-06T05:30:29;5.10;;;4.60;;
42194;SDS011;27863;49.440;11.102;2024-01-06T05:33:30;5.80;;;5.30;;
42194;SDS011;27863;49.440;11.102;2024-01-06T05:36:31;5.17;;;4.77;;
42194;SDS011;27863;49.440;11.102;2024-01-06T05:39:32;4.90;;;4.40;;
42194;SDS011;27863;49.440;11.102;2024-01-06T05:42:33;5.30;;;4.80;;
42194;SDS011;27863;49.440;11.102;2024-01-06T05:45:33;5.90;;;5.03;;
42194;SDS011;27863;49.440;11.102;2024-01-06T05:48:34;6.00;;;5.43;;
42194;SDS011;27863;49.440;11.102;2024-01-06T05:51:35;5.50;;;5.00;;
42194;SDS011;27863;49.440;11.102;2024-01-06T05:54:35;5.63;;;4.57;;
42194;SDS011;27863;49.440;11.102;2024-01-06T05:57:36;6.67;;;5.10;;
42194;SDS011;27863;49.440;11.102;2024-01-06T06:00:37;6.90;;;5.50;;
42194;SDS011;27863;49.440;11.102;2024-01-06T06:03:37;8.97;;;6.77;;
42194;SDS011;27863;49.440;11.102;2024-01-06T06:06:39;6.33;;;5.67;;
42194;SDS011;27863;49.440;11.102;2024-01-06T06:09:39;6.67;;;5.67;;
42194;SDS011;27863;49.440;11.102;2024-01-06T06:12:40;5.93;;;4.83;;
42194;SDS011;27863;49.440;11.102;2024-01-06T06:15:41;6.00;;;5.50;;
42194;SDS011;27863;49.440;11.102;2024-01-06T06:18:41;6.40;;;5.50;;
42194;SDS011;27863;49.440;11.102;2024-01-06T06:21:42;5.93;;;5.43;;
42194;SDS011;27863;49.440;11.102;2024-01-06T06:24:42;5.83;;;5.13;;
42194;SDS011;27863;49.440;11.102;2024-01-06T06:27:43;6.07;;;5.47;;
42194;SDS011;27863;49.440;11.102;2024-01-06T06:30:43;5.20;;;4.80;;
42194;SDS011;27863;49.440;11.102;2024-01-06T06:33:44;5.93;;;5.33;;
42194;SDS011;27863;49.440;11.102;2024-01-06T06:36:44;5.27;;;4.77;;
42194;SDS011;27863;49.440;11.102;2024-01-06T06:39:46;6.07;;;5.40;;
42194;SDS011;27863;49.440;11.102;2024-01-06T06:42:46;6.93;;;5.87;;
42194;SDS011;27863;49.440;11.102;2024-01-06T06:45:48;9.90;;;6.10;;
42194;SDS011;27863;49.440;11.102;2024-01-06T06:48:48;6.07;;;5.47;;
42194;SDS011;27863;49.440;11.102;2024-01-06T06:51:49;9.97;;;5.50;;
42194;SDS011;27863;49.440;11.102;2024-01-06T06:54:50;5.80;;;5.13;;
42194;SDS011;27863;49.440;11.102;2024-01-06T06:57:52;6.17;;;5.57;;
42194;SDS011;27863;49.440;11.102;2024-01-06T07:00:53;9.77;;;5.37;;
42194;SDS011;27863;49.440;11.102;2024-01-06T07:03:54;5.90;;;5.30;;
42194;SDS011;27863;49.440;11.102;2024-01-06T07:06:54;6.63;;;5.23;;
42194;SDS011;27863;49.440;11.102;2024-01-06T07:09:55;6.03;;;5.33;;
42194;SDS011;27863;49.440;11.102;2024-01-06T07:12:55;6.00;;;5.50;;
42194;SDS011;27863;49.440;11.102;2024-01-06T07:15:56;6.40;;;5.83;;
42194;SDS011;27863;49.440;11.102;2024-01-06T07:18:56;5.70;;;5.20;;
42194;SDS011;27863;49.440;11.102;2024-01-06T07:21:57;6.17;;;5.23;;
42194;SDS011;27863;49.440;11.102;2024-01-06T07:24:58;8.80;;;5.77;;
42194;SDS011;27863;49.440;11.102;2024-01-06T07:27:58;5.73;;;4.70;;
42194;SDS011;27863;49.440;11.102;2024-01-06T07:31:00;6.43;;;4.90;;
42194;SDS011;27863;49.440;11.102;2024-01-06T07:34:00;5.10;;;4.60;;
42194;SDS011;27863;49.440;11.102;2024-01-06T07:37:01;5.97;;;5.37;;
42194;SDS011;27863;49.440;11.102;2024-01-06T07:40:01;5.43;;;5.00;;
42194;SDS011;27863;49.440;11.102;2024-01-06T07:43:02;5.13;;;4.73;;
42194;SDS011;27863;49.440;11.102;2024-01-06T07:46:04;5.73;;;4.63;;
42194;SDS011;27863;49.440;11.102;2024-01-06T07:49:07;5.73;;;4.80;;
42194;SDS011;27863;49.440;11.102;2024-01-06T07:52:10;7.53;;;4.60;;
42194;SDS011;27863;49.440;11.102;2024-01-06T07:55:11;4.93;;;4.43;;
42194;SDS011;27863;49.440;11.102;2024-01-06T07:58:11;4.77;;;4.30;;
42194;SDS011;27863;49.440;11.102;2024-01-06T08:01:12;4.73;;;4.33;;
42194;SDS011;27863;49.440;11.102;2024-01-06T08:04:13;7.33;;;4.70;;
42194;SDS011;27863;49.440;11.102;2024-01-06T08:07:14;5.30;;;4.80;;
42194;SDS011;27863;49.440;11.102;2024-01-06T08:10:14;4.53;;;4.23;;
42194;SDS011;27863;49.440;11.102;2024-01-06T08:13:14;5.23;;;4.37;;
42194;SDS011;27863;49.440;11.102;2024-01-06T08:16:15;5.33;;;4.83;;
42194;SDS011;27863;49.440;11.102;2024-01-06T08:19:16;6.67;;;5.03;;
42194;SDS011;27863;49.440;11.102;2024-01-06T08:22:16;5.70;;;5.20;;
42194;SDS011;27863;49.440;11.102;2024-01-06T08:25:17;6.17;;;5.57;;
42194;SDS011;27863;49.440;11.102;2024-01-06T08:28:17;7.27;;;6.63;;
42194;SDS011;27863;49.440;11.102;2024-01-06T08:31:18;7.50;;;5.87;;
42194;SDS011;27863;49.440;11.102;2024-01-06T08:34:19;7.77;;;6.90;;
42194;SDS011;27863;49.440;11.102;2024-01-06T08:37:19;6.43;;;5.73;;
42194;SDS011;27863;49.440;11.102;2024-01-06T08:40:20;5.90;;;5.40;;
42194;SDS011;27863;49.440;11.102;2024-01-06T08:43:20;6.90;;;6.30;;
42194;SDS011;27863;49.440;11.102;2024-01-06T08:46:21;7.17;;;6.30;;
42194;SDS011;27863;49.440;11.102;2024-01-06T08:49:21;10.67;;;7.07;;
42194;SDS011;27863;49.440;11.102;2024-01-06T08:52:22;7.20;;;6.17;;
42194;SDS011;27863;49.440;11.102;2024-01-06T08:55:22;8.10;;;7.30;;
42194;SDS011;27863;49.440;11.102;2024-01-06T08:58:23;7.67;;;6.80;;
42194;SDS011;27863;49.440;11.102;2024-01-06T09:01:23;8.60;;;6.20;;
42194;SDS011;27863;49.440;11.102;2024-01-06T09:04:24;5.93;;;5.43;;
42194;SDS011;27863;49.440;11.102;2024-01-06T09:07:24;7.20;;;6.50;;
42194;SDS011;27863;49.440;11.102;2024-01-06T09:10:25;9.23;;;8.33;;
42194;SDS011;27863;49.440;11.102;2024-01-06T09:13:26;7.50;;;6.47;;
42194;SDS011;27863;49.440;11.102;2024-01-06T09:16:26;8.10;;;5.77;;
42194;SDS011;27863;49.440;11.102;2024-01-06T09:19:27;7.77;;;6.43;;
42194;SDS011;27863;49.440;11.102;2024-01-06T09:22:28;6.77;;;5.87;;
42194;SDS011;27863;49.440;11.102;2024-01-06T09:25:32;7.23;;;5.63;;
42194;SDS011;27863;49.440;11.102;2024-01-06T09:28:32;7.20;;;6.47;;
42194;SDS011;27863;49.440;11.102;2024-01-06T09:31:33;7.67;;;5.87;;
42194;SDS011;27863;49.440;11.102;2024-01-06T09:34:34;6.20;;;5.60;;
42194;SDS011;27863;49.440;11.102;2024-01-06T09:37:34;11.03;;;6.07;;
42194;SDS011;27863;49.440;11.102;2024-01-06T09:40:35;8.13;;;5.97;;
42194;SDS011;27863;49.440;11.102;2024-01-06T09:43:43;10.47;;;6.17;;
42194;SDS011;27863;49.440;11.102;2024-01-06T09:46:44;5.20;;;4.80;;
42194;SDS011;27863;49.440;11.102;2024-01-06T09:49:47;5.87;;;5.37;;
42194;SDS011;27863;49.440;11.102;2024-01-06T09:52:49;6.50;;;5.83;;
42194;SDS011;27863;49.440;11.102;2024-01-06T09:55:55;5.90;;;5.37;;
42194;SDS011;27863;49.440;11.102;2024-01-06T09:58:56;6.53;;;4.97;;
42194;SDS011;27863;49.440;11.102;2024-01-06T10:01:58;6.87;;;6.23;;
42194;SDS011;27863;49.440;11.102;2024-01-06T10:04:59;6.00;;;5.50;;
42194;SDS011;27863;49.440;11.102;2024-01-06T10:07:59;7.50;;;5.97;;
42194;SDS011;27863;49.440;11.102;2024-01-06T10:11:00;6.13;;;5.43;;
42194;SDS011;27863;49.440;11.102;2024-01-06T10:14:01;8.50;;;5.43;;
42194;SDS011;27863;49.440;11.102;2024-01-06T10:17:05;5.97;;;5.37;;
42194;SDS011;27863;49.440;11.102;2024-01-06T10:20:11;7.67;;;5.70;;
42194;SDS011;27863;49.440;11.102;2024-01-06T10:23:12;7.37;;;5.50;;
42194;SDS011;27863;49.440;11.102;2024-01-06T10:26:13;6.20;;;5.50;;
42194;SDS011;27863;49.440;11.102;2024-01-06T10:29:14;7.17;;;6.50;;
42194;SDS011;27863;49.440;11.102;2024-01-06T10:32:14;6.73;;;6.07;;
42194;SDS011;27863;49.440;11.102;2024-01-06T10:35:15;6.53;;;6.03;;
42194;SDS011;27863;49.440;11.102;2024-01-06T10:38:16;7.13;;;5.70;;
42194;SDS011;27863;49.440;11.102;2024-01-06T10:41:17;7.53;;;6.67;;
42194;SDS011;27863;49.440;11.102;2024-01-06T10:44:19;11.10;;;9.90;;
42194;SDS011;27863;49.440;11.102;2024-01-06T10:47:21;8.60;;;6.93;;
42194;SDS011;27863;49.440;11.102;2024-01-06T10:50:21;5.40;;;4.90;;
42194;SDS011;27863;49.440;11.102;2024-01-06T10:53:22;6.27;;;5.50;;
42194;SDS011;27863;49.440;11.102;2024-01-06T10:56:24;5.53;;;4.47;;
42194;SDS011;27863;49.440;11.102;2024-01-06T10:59:26;8.20;;;5.13;;
42194;SDS011;27863;49.440;11.102;2024-01-06T11:02:29;6.77;;;6.13;;
42194;SDS011;27863;49.440;11.102;2024-01-06T11:05:29;9.97;;;6.00;;
42194;SDS011;27863;49.440;11.102;2024-01-06T11:08:30;5.57;;;5.17;;
42194;SDS011;27863;49.440;11.102;2024-01-06T11:11:32;6.33;;;5.70;;
42194;SDS011;27863;49.440;11.102;2024-01-06T11:14:38;5.40;;;4.90;;
42194;SDS011;27863;49.440;11.102;2024-01-06T11:17:49;5.50;;;4.50;;
42194;SDS011;27863;49.440;11.102;2024-01-06T11:24:26;6.60;;;6.00;;
42194;SDS011;27863;49.440;11.102;2024-01-06T11:27:27;4.97;;;4.57;;
42194;SDS011;27863;49.440;11.102;2024-01-06T11:30:28;4.93;;;4.40;;
42194;SDS011;27863;49.440;11.102;2024-01-06T11:33:29;5.80;;;5.20;;
42194;SDS011;27863;49.440;11.102;2024-01-06T11:36:30;5.27;;;4.87;;
42194;SDS011;27863;49.440;11.102;2024-01-06T11:39:35;6.27;;;5.03;;
42194;SDS011;27863;49.440;11.102;2024-01-06T11:42:38;4.93;;;4.53;;
42194;SDS011;27863;49.440;11.102;2024-01-06T11:45:41;4.87;;;4.37;;
42194;SDS011;27863;49.440;11.102;2024-01-06T11:48:42;4.40;;;4.00;;
42194;SDS011;27863;49.440;11.102;2024-01-06T11:51:50;3.27;;;2.97;;
42194;SDS011;27863;49.440;11.102;2024-01-06T11:54:54;3.87;;;3.53;;
42194;SDS011;27863;49.440;11.102;2024-01-06T11:57:55;4.83;;;4.03;;
42194;SDS011;27863;49.440;11.102;2024-01-06T12:00:57;4.37;;;3.17;;
42194;SDS011;27863;49.440;11.102;2024-01-06T12:03:58;3.53;;;3.23;;
42194;SDS011;27863;49.440;11.102;2024-01-06T12:07:05;4.23;;;3.07;;
42194;SDS011;27863;49.440;11.102;2024-01-06T12:10:07;4.47;;;4.03;;
42194;SDS011;27863;49.440;11.102;2024-01-06T12:13:08;3.27;;;2.87;;
42194;SDS011;27863;49.440;11.102;2024-01-06T12:16:08;4.73;;;3.27;;
42194;SDS011;27863;49.440;11.102;2024-01-06T12:19:09;2.73;;;2.53;;
42194;SDS011;27863;49.440;11.102;2024-01-06T12:22:10;2.53;;;2.33;;
42194;SDS011;27863;49.440;11.102;2024-01-06T12:25:14;2.80;;;2.50;;
42194;SDS011;27863;49.440;11.102;2024-01-06T12:28:15;3.47;;;3.17;;
42194;SDS011;27863;49.440;11.102;2024-01-06T12:31:16;4.53;;;3.47;;
42194;SDS011;27863;49.440;11.102;2024-01-06T12:34:16;3.20;;;2.90;;
42194;SDS011;27863;49.440;11.102;2024-01-06T12:37:17;5.67;;;4.20;;
42194;SDS011;27863;49.440;11.102;2024-01-06T12:40:17;3.33;;;3.00;;
42194;SDS011;27863;49.440;11.102;2024-01-06T12:43:19;5.40;;;4.67;;
42194;SDS011;27863;49.440;11.102;2024-01-06T12:46:20;6.20;;;3.80;;
42194;SDS011;27863;49.440;11.102;2024-01-06T12:49:20;3.90;;;3.60;;
42194;SDS011;27863;49.440;11.102;2024-01-06T12:52:21;4.53;;;4.13;;
42194;SDS011;27863;49.440;11.102;2024-01-06T12:55:21;5.23;;;4.73;;
42194;SDS011;27863;49.440;11.102;2024-01-06T12:58:22;6.03;;;5.53;;
42194;SDS011;27863;49.440;11.102;2024-01-06T13:01:23;6.87;;;4.97;;
42194;SDS011;27863;49.440;11.102;2024-01-06T13:04:24;4.70;;;3.60;;
42194;SDS011;27863;49.440;11.102;2024-01-06T13:07:24;5.33;;;3.67;;
42194;SDS011;27863;49.440;11.102;2024-01-06T13:10:25;4.53;;;4.13;;
42194;SDS011;27863;49.440;11.102;2024-01-06T13:13:26;4.63;;;4.23;;
42194;SDS011;27863;49.440;11.102;2024-01-06T13:16:26;4.80;;;4.30;;
42194;SDS011;27863;49.440;11.102;2024-01-06T13:19:27;4.50;;;3.90;;
42194;SDS011;27863;49.440;11.102;2024-01-06T13:22:27;4.30;;;3.90;;
42194;SDS011;27863;49.440;11.102;2024-01-06T13:25:28;4.13;;;3.73;;
42194;SDS011;27863;49.440;11.102;2024-01-06T13:28:29;4.87;;;3.50;;
42194;SDS011;27863;49.440;11.102;2024-01-06T13:31:30;4.87;;;4.30;;
42194;SDS011;27863;49.440;11.102;2024-01-06T13:34:31;3.80;;;3.00;;
42194;SDS011;27863;49.440;11.102;2024-01-06T13:37:31;4.27;;;3.90;;
42194;SDS011;27863;49.440;11.102;2024-01-06T13:40:32;8.73;;;3.77;;
42194;SDS011;27863;49.440;11.102;2024-01-06T13:43:32;4.93;;;4.50;;
42194;SDS011;27863;49.440;11.102;2024-01-06T13:46:33;4.07;;;3.77;;
42194;SDS011;27863;49.440;11.102;2024-01-06T13:49:34;4.13;;;3.60;;
42194;SDS011;27863;49.440;11.102;2024-01-06T13:52:34;4.93;;;4.53;;
42194;SDS011;27863;49.440;11.102;2024-01-06T13:55:36;5.47;;;4.30;;
42194;SDS011;27863;49.440;11.102;2024-01-06T13:58:36;7.40;;;5.47;;
42194;SDS011;27863;49.440;11.102;2024-01-06T14:01:38;4.40;;;4.00;;
42194;SDS011;27863;49.440;11.102;2024-01-06T14:04:39;3.70;;;3.23;;
42194;SDS011;27863;49.440;11.102;2024-01-06T14:07:39;3.60;;;3.30;;
42194;SDS011;27863;49.440;11.102;2024-01-06T14:10:45;5.50;;;4.50;;
42194;SDS011;27863;49.440;11.102;2024-01-06T14:13:45;6.53;;;3.47;;
42194;SDS011;27863;49.440;11.102;2024-01-06T14:16:49;6.10;;;4.77;;
42194;SDS011;27863;49.440;11.102;2024-01-06T14:19:50;6.30;;;5.37;;
42194;SDS011;27863;49.440;11.102;2024-01-06T14:22:52;6.73;;;5.90;;
42194;SDS011;27863;49.440;11.102;2024-01-06T14:25:52;4.87;;;4.47;;
42194;SDS011;27863;49.440;11.102;2024-01-06T14:28:53;3.90;;;3.50;;
42194;SDS011;27863;49.440;11.102;2024-01-06T14:31:54;4.53;;;3.43;;
42194;SDS011;27863;49.440;11.102;2024-01-06T14:34:54;3.67;;;3.20;;
42194;SDS011;27863;49.440;11.102;2024-01-06T14:37:55;4.43;;;3.33;;
42194;SDS011;27863;49.440;11.102;2024-01-06T14:40:57;4.87;;;2.80;;
42194;SDS011;27863;49.440;11.102;2024-01-06T14:43:57;9.20;;;2.97;;
42194;SDS011;27863;49.440;11.102;2024-01-06T14:46:58;3.87;;;3.10;;
42194;SDS011;27863;49.440;11.102;2024-01-06T14:49:59;4.17;;;3.27;;
42194;SDS011;27863;49.440;11.102;2024-01-06T14:52:59;3.13;;;2.90;;
42194;SDS011;27863;49.440;11.102;2024-01-06T14:56:00;4.63;;;4.10;;
42194;SDS011;27863;49.440;11.102;2024-01-06T14:59:01;4.13;;;3.30;;
42194;SDS011;27863;49.440;11.102;2024-01-06T15:02:01;4.20;;;3.80;;
42194;SDS011;27863;49.440;11.102;2024-01-06T15:05:02;4.23;;;3.90;;
42194;SDS011;27863;49.440;11.102;2024-01-06T15:08:04;3.63;;;3.33;;
42194;SDS011;27863;49.440;11.102;2024-01-06T15:11:05;3.93;;;3.53;;
42194;SDS011;27863;49.440;11.102;2024-01-06T15:14:06;3.33;;;3.03;;
42194;SDS011;27863;49.440;11.102;2024-01-06T15:17:09;4.37;;;3.83;;
42194;SDS011;27863;49.440;11.102;2024-01-06T15:20:10;4.43;;;3.13;;
42194;SDS011;27863;49.440;11.102;2024-01-06T15:23:12;3.30;;;3.10;;
42194;SDS011;27863;49.440;11.102;2024-01-06T15:26:20;3.77;;;3.33;;
42194;SDS011;27863;49.440;11.102;2024-01-06T15:29:26;2.70;;;2.50;;
42194;SDS011;27863;49.440;11.102;2024-01-06T15:32:27;3.13;;;2.83;;
42194;SDS011;27863;49.440;11.102;2024-01-06T15:35:28;3.03;;;2.83;;
42194;SDS011;27863;49.440;11.102;2024-01-06T15:38:28;3.77;;;2.93;;
42194;SDS011;27863;49.440;11.102;2024-01-06T15:41:29;3.23;;;2.93;;
42194;SDS011;27863;49.440;11.102;2024-01-06T15:44:29;4.33;;;3.93;;
42194;SDS011;27863;49.440;11.102;2024-01-06T15:47:32;4.80;;;4.40;;
42194;SDS011;27863;49.440;11.102;2024-01-06T15:50:33;4.23;;;3.83;;
42194;SDS011;27863;49.440;11.102;2024-01-06T15:53:34;6.53;;;3.83;;
42194;SDS011;27863;49.440;11.102;2024-01-06T15:56:34;15.00;;;11.83;;
42194;SDS011;27863;49.440;11.102;2024-01-06T15:59:35;7.93;;;7.20;;
42194;SDS011;27863;49.440;11.102;2024-01-06T16:02:35;8.10;;;7.30;;
42194;SDS011;27863;49.440;11.102;2024-01-06T16:05:36;15.20;;;10.13;;
42194;SDS011;27863;49.440;11.102;2024-01-06T16:08:36;14.73;;;10.43;;
42194;SDS011;27863;49.440;11.102;2024-01-06T16:11:40;7.30;;;6.67;;
42194;SDS011;27863;49.440;11.102;2024-01-06T16:14:41;5.40;;;4.90;;
42194;SDS011;27863;49.440;11.102;2024-01-06T16:17:41;6.87;;;6.27;;
42194;SDS011;27863;49.440;11.102;2024-01-06T16:20:42;6.57;;;5.93;;
42194;SDS011;27863;49.440;11.102;2024-01-06T16:23:42;9.17;;;6.30;;
42194;SDS011;27863;49.440;11.102;2024-01-06T16:26:43;6.87;;;6.17;;
42194;SDS011;27863;49.440;11.102;2024-01-06T16:29:45;6.17;;;5.57;;
42194;SDS011;27863;49.440;11.102;2024-01-06T16:32:46;6.60;;;5.90;;
42194;SDS011;27863;49.440;11.102;2024-01-06T16:35:47;7.03;;;6.43;;
42194;SDS011;27863;49.440;11.102;2024-01-06T16:38:48;6.50;;;5.63;;
42194;SDS011;27863;49.440;11.102;2024-01-06T16:41:48;5.80;;;5.30;;
42194;SDS011;27863;49.440;11.102;2024-01-06T16:44:49;7.20;;;6.60;;
42194;SDS011;27863;49.440;11.102;2024-01-06T16:47:49;6.57;;;5.93;;
42194;SDS011;27863;49.440;11.102;2024-01-06T16:50:50;6.40;;;5.80;;
42194;SDS011;27863;49.440;11.102;2024-01-06T16:53:51;5.77;;;5.27;;
42194;SDS011;27863;49.440;11.102;2024-01-06T16:56:52;7.20;;;6.50;;
42194;SDS011;27863;49.440;11.102;2024-01-06T17:00:01;7.80;;;7.03;;
42194;SDS011;27863;49.440;11.102;2024-01-06T17:03:02;7.33;;;6.70;;
42194;SDS011;27863;49.440;11.102;2024-01-06T17:06:03;8.47;;;7.23;;
42194;SDS011;27863;49.440;11.102;2024-01-06T17:09:04;8.83;;;7.50;;
42194;SDS011;27863;49.440;11.102;2024-01-06T17:12:05;7.07;;;6.47;;
42194;SDS011;27863;49.440;11.102;2024-01-06T17:15:06;8.57;;;7.87;;
42194;SDS011;27863;49.440;11.102;2024-01-06T17:18:08;9.73;;;8.73;;
42194;SDS011;27863;49.440;11.102;2024-01-06T17:21:08;7.03;;;6.33;;
42194;SDS011;27863;49.440;11.102;2024-01-06T17:24:14;8.23;;;6.37;;
42194;SDS011;27863;49.440;11.102;2024-01-06T17:27:15;8.63;;;7.83;;
42194;SDS011;27863;49.440;11.102;2024-01-06T17:30:16;7.90;;;7.20;;
42194;SDS011;27863;49.440;11.102;2024-01-06T17:33:17;8.70;;;7.90;;
42194;SDS011;27863;49.440;11.102;2024-01-06T17:36:18;9.60;;;8.70;;
42194;SDS011;27863;49.440;11.102;2024-01-06T17:39:18;9.63;;;8.83;;
42194;SDS011;27863;49.440;11.102;2024-01-06T17:42:19;11.03;;;9.83;;
42194;SDS011;27863;49.440;11.102;2024-01-06T17:45:21;11.03;;;9.93;;
42194;SDS011;27863;49.440;11.102;2024-01-06T17:48:24;8.50;;;7.63;;
42194;SDS011;27863;49.440;11.102;2024-01-06T17:51:26;10.23;;;7.93;;
42194;SDS011;27863;49.440;11.102;2024-01-06T17:54:29;9.87;;;8.97;;
42194;SDS011;27863;49.440;11.102;2024-01-06T17:57:30;8.53;;;7.73;;